createdAt,value
2019-02-18T00:02:01.681Z,80.25
2019-02-18T00:04:35.612Z,80.35
2019-02-18T00:07:14.037Z,80.31
2019-02-18T00:09:39.292Z,80.26
2019-02-18T00:12:11.988Z,80.17
2019-02-18T00:16:11.279Z,80.24
2019-02-18T00:18:15.641Z,80.12
2019-02-18T00:21:27.976Z,80.18
2019-02-18T00:24:28.908Z,79.89
2019-02-18T00:26:59.662Z,80.34
2019-02-18T00:29:30.657Z,80.52
2019-02-18T00:32:01.518Z,80.61
2019-02-18T00:34:32.480Z,80.58
2019-02-18T00:37:03.457Z,80.64
2019-02-18T00:39:34.246Z,80.63
2019-02-18T00:42:05.367Z,80.68
2019-02-18T00:44:36.228Z,80.28
2019-02-18T00:47:07.167Z,79.98
2019-02-18T00:49:37.952Z,79.98
2019-02-18T00:52:09.075Z,80.28
2019-02-18T00:54:39.873Z,80.72
2019-02-18T00:57:10.840Z,80.82
2019-02-18T00:59:41.625Z,80.76
2019-02-18T01:02:15.503Z,80.70
2019-02-18T01:04:46.643Z,80.60
2019-02-18T01:07:34.110Z,80.29
2019-02-18T01:09:54.963Z,80.59
2019-02-18T01:12:26.123Z,80.68
2019-02-18T01:14:58.605Z,80.61
2019-02-18T01:17:29.533Z,80.47
2019-02-18T01:20:00.578Z,80.44
2019-02-18T01:22:33.245Z,80.22
2019-02-18T01:25:09.010Z,79.70
2019-02-18T01:27:40.205Z,79.81
2019-02-18T01:30:13.846Z,79.94
2019-02-18T01:32:49.534Z,80.10
2019-02-18T01:35:20.434Z,80.58
2019-02-18T01:37:51.654Z,80.81
2019-02-18T01:40:22.677Z,80.28
2019-02-18T01:42:53.654Z,80.31
2019-02-18T01:45:24.674Z,80.56
2019-02-18T01:47:59.254Z,80.39
2019-02-18T01:50:30.005Z,80.35
2019-02-18T01:53:05.589Z,80.28
2019-02-18T01:55:41.809Z,80.18
2019-02-18T01:58:12.774Z,80.60
2019-02-18T02:00:43.928Z,80.77
2019-02-18T02:03:25.272Z,80.28
2019-02-18T02:05:59.509Z,80.10
2019-02-18T02:08:30.993Z,80.06
2019-02-18T02:11:02.344Z,79.94
2019-02-18T02:13:36.354Z,80.29
2019-02-18T02:16:12.308Z,80.24
2019-02-18T02:18:46.514Z,80.39
2019-02-18T02:21:17.594Z,80.50
2019-02-18T02:23:48.890Z,80.09
2019-02-18T02:26:20.058Z,80.28
2019-02-18T02:28:51.394Z,80.27
2019-02-18T02:31:26.835Z,80.28
2019-02-18T02:34:00.536Z,80.63
2019-02-18T02:36:33.061Z,80.62
2019-02-18T02:39:06.733Z,80.53
2019-02-18T02:41:38.725Z,80.68
2019-02-18T02:44:15.704Z,80.64
2019-02-18T02:46:51.805Z,80.70
2019-02-18T02:49:27.189Z,80.56
2019-02-18T02:52:05.333Z,80.50
2019-02-18T02:54:41.955Z,80.35
2019-02-18T02:57:16.443Z,80.48
2019-02-18T02:59:52.548Z,80.61
2019-02-18T03:02:26.204Z,80.62
2019-02-18T03:04:57.434Z,80.73
2019-02-18T03:07:28.635Z,81.06
2019-02-18T03:09:59.743Z,81.42
2019-02-18T03:12:30.711Z,81.53
2019-02-18T03:15:01.786Z,81.33
2019-02-18T03:17:36.567Z,81.03
2019-02-18T03:20:21.331Z,81.01
2019-02-18T03:23:00.933Z,80.99
2019-02-18T03:25:56.053Z,81.01
2019-02-18T03:28:56.355Z,81.18
2019-02-18T03:31:32.418Z,81.39
2019-02-18T03:34:27.723Z,81.22
2019-02-18T03:37:03.365Z,80.83
2019-02-18T03:39:47.403Z,81.08
2019-02-18T03:42:21.247Z,80.51
2019-02-18T03:45:02.769Z,80.66
2019-02-18T03:47:47.726Z,80.57
2019-02-18T03:50:16.533Z,80.42
2019-02-18T03:52:55.955Z,80.83
2019-02-18T03:55:27.198Z,80.89
2019-02-18T03:57:58.246Z,80.84
2019-02-18T04:00:32.534Z,80.95
2019-02-18T04:03:03.873Z,81.14
2019-02-18T04:05:36.575Z,81.23
2019-02-18T04:08:16.224Z,81.44
2019-02-18T04:10:50.573Z,81.30
2019-02-18T04:13:24.268Z,81.10
2019-02-18T04:15:55.676Z,80.94
2019-02-18T04:18:28.671Z,81.00
2019-02-18T04:21:10.056Z,81.22
2019-02-18T04:23:44.203Z,81.29
2019-02-18T04:26:18.324Z,81.21
2019-02-18T04:28:58.997Z,81.36
2019-02-18T04:31:32.824Z,81.11
2019-02-18T04:34:05.063Z,80.91
2019-02-18T04:36:36.015Z,80.83
2019-02-18T04:39:08.354Z,80.86
2019-02-18T04:41:39.340Z,81.06
2019-02-18T04:44:10.323Z,81.12
2019-02-18T04:46:41.293Z,80.96
2019-02-18T04:49:12.164Z,81.32
2019-02-18T04:51:43.160Z,81.26
2019-02-18T04:54:14.554Z,81.41
2019-02-18T04:56:45.746Z,81.20
2019-02-18T04:59:16.646Z,81.39
2019-02-18T05:01:47.629Z,81.29
2019-02-18T05:04:20.884Z,81.33
2019-02-18T05:06:51.938Z,81.20
2019-02-18T05:09:23.034Z,81.49
2019-02-18T05:11:53.946Z,81.46
2019-02-18T05:14:24.818Z,81.46
2019-02-18T05:16:55.836Z,81.38
2019-02-18T05:19:54.464Z,81.09
2019-02-18T05:22:25.547Z,81.18
2019-02-18T05:24:56.605Z,81.12
2019-02-18T05:27:33.377Z,81.16
2019-02-18T05:30:03.044Z,81.22
2019-02-18T05:32:36.324Z,81.42
2019-02-18T05:35:13.874Z,81.46
2019-02-18T05:38:01.125Z,81.41
2019-02-18T05:48:08.304Z,81.11
2019-02-18T05:52:00.215Z,81.48
2019-02-18T05:54:16.263Z,81.21
2019-02-18T06:00:34.673Z,80.91
2019-02-18T06:04:04.393Z,81.05
2019-02-18T06:14:12.813Z,81.31
2019-02-18T06:17:10.604Z,81.11
2019-02-18T06:24:44.793Z,81.17
2019-02-18T06:26:48.624Z,80.79
2019-02-18T06:29:40.758Z,81.27
2019-02-18T06:32:43.105Z,80.85
2019-02-18T06:35:50.017Z,80.67
2019-02-18T06:38:02.206Z,80.60
2019-02-18T06:40:52.017Z,80.43
2019-02-18T06:43:25.624Z,80.41
2019-02-18T06:46:08.404Z,80.15
2019-02-18T06:48:45.123Z,80.28
2019-02-18T06:51:17.103Z,80.34
2019-02-18T06:53:48.195Z,80.50
2019-02-18T06:56:23.156Z,80.24
2019-02-18T06:59:13.119Z,80.23
2019-02-18T07:01:58.335Z,80.09
2019-02-18T07:04:46.014Z,80.05
2019-02-18T07:07:29.079Z,80.09
2019-02-18T07:10:19.045Z,79.86
2019-02-18T07:12:51.954Z,79.70
2019-02-18T07:15:22.994Z,79.76
2019-02-18T07:17:55.847Z,79.55
2019-02-18T07:20:26.967Z,79.48
2019-02-18T07:22:57.994Z,79.07
2019-02-18T07:25:28.904Z,79.41
2019-02-18T07:27:59.915Z,79.13
2019-02-18T07:30:31.074Z,79.06
2019-02-18T07:33:01.994Z,78.89
2019-02-18T07:35:34.263Z,78.71
2019-02-18T07:38:04.193Z,78.88
2019-02-18T07:41:09.356Z,79.79
2019-02-18T07:43:48.063Z,79.10
2019-02-18T07:46:37.574Z,79.11
2019-02-18T07:49:11.601Z,79.00
2019-02-18T07:51:57.014Z,78.83
2019-02-18T08:04:44.849Z,77.96
2019-02-18T08:07:39.287Z,77.99
2019-02-18T08:10:30.765Z,78.03
2019-02-18T08:14:13.154Z,77.70
2019-02-18T08:31:08.283Z,76.88
2019-02-18T08:43:41.013Z,75.97
2019-02-18T08:50:18.787Z,75.95
2019-02-18T08:52:50.204Z,75.73
2019-02-18T08:55:25.088Z,75.49
2019-02-18T08:58:40.666Z,75.57
2019-02-18T09:01:18.328Z,75.24
2019-02-18T09:03:50.855Z,74.86
2019-02-18T09:06:52.694Z,74.64
2019-02-18T09:16:54.036Z,73.69
2019-02-18T09:22:43.581Z,73.01
2019-02-18T09:25:23.105Z,72.76
2019-02-18T09:27:59.834Z,73.11
2019-02-18T09:30:34.262Z,72.96
2019-02-18T09:33:10.094Z,72.69
2019-02-18T09:35:47.853Z,72.24
2019-02-18T09:38:30.525Z,71.62
2019-02-18T09:41:02.369Z,71.22
2019-02-18T09:43:33.205Z,70.77
2019-02-18T09:46:04.132Z,70.37
2019-02-18T09:48:35.105Z,70.05
2019-02-18T09:51:05.946Z,69.80
2019-02-18T09:53:36.806Z,69.48
2019-02-18T09:56:07.814Z,69.30
2019-02-18T09:58:38.905Z,69.44
2019-02-18T10:01:09.978Z,69.34
2019-02-18T10:03:41.014Z,68.86
2019-02-18T10:06:12.025Z,68.59
2019-02-18T10:08:50.116Z,68.69
2019-02-18T10:11:21.195Z,68.15
2019-02-18T10:13:52.145Z,68.15
2019-02-18T10:16:23.185Z,67.55
2019-02-18T10:18:54.085Z,67.23
2019-02-18T10:21:30.425Z,66.41
2019-02-18T10:24:04.124Z,66.07
2019-02-18T10:26:37.574Z,65.32
2019-02-18T10:29:09.677Z,62.71
2019-02-18T10:31:40.905Z,61.16
2019-02-18T10:34:12.115Z,60.84
2019-02-18T10:36:43.185Z,60.95
2019-02-18T10:39:16.576Z,59.97
2019-02-18T10:41:47.455Z,60.31
2019-02-18T10:44:18.265Z,60.97
2019-02-18T10:46:49.295Z,60.88
2019-02-18T10:49:21.934Z,60.35
2019-02-18T10:51:53.093Z,58.91
2019-02-18T10:54:25.705Z,57.09
2019-02-18T10:56:58.178Z,55.88
2019-02-18T10:59:29.554Z,53.84
2019-02-18T11:02:00.608Z,53.49
2019-02-18T11:04:31.974Z,54.67
2019-02-18T11:07:03.674Z,54.19
2019-02-18T11:09:34.804Z,55.09
2019-02-18T11:12:06.124Z,52.87
2019-02-18T11:14:37.175Z,52.98
2019-02-18T11:17:14.827Z,50.88
2019-02-18T11:19:48.896Z,49.30
2019-02-18T11:22:25.075Z,49.66
2019-02-18T11:24:55.845Z,50.99
2019-02-18T11:27:26.775Z,51.65
2019-02-18T11:29:59.154Z,51.02
2019-02-18T11:32:30.344Z,51.19
2019-02-18T11:35:01.528Z,50.67
2019-02-18T11:37:32.546Z,50.85
2019-02-18T11:40:03.856Z,51.61
2019-02-18T11:42:37.341Z,50.80
2019-02-18T11:45:08.145Z,46.31
2019-02-18T11:47:39.104Z,49.77
2019-02-18T11:50:11.561Z,49.38
2019-02-18T11:52:42.658Z,49.53
2019-02-18T11:55:13.435Z,49.67
2019-02-18T11:57:45.083Z,48.69
2019-02-18T12:00:16.151Z,46.48
2019-02-18T12:02:47.635Z,47.56
2019-02-18T12:05:18.496Z,46.10
2019-02-18T12:07:49.345Z,46.25
2019-02-18T12:10:20.245Z,46.13
2019-02-18T12:12:51.264Z,44.47
2019-02-18T12:15:22.189Z,45.29
2019-02-18T12:17:53.156Z,44.91
2019-02-18T12:20:24.025Z,43.57
2019-02-18T12:22:55.094Z,44.01
2019-02-18T12:25:26.436Z,44.39
2019-02-18T12:27:57.345Z,45.25
2019-02-18T12:30:28.274Z,45.49
2019-02-18T12:32:59.324Z,45.91
2019-02-18T12:35:34.003Z,46.89
2019-02-18T12:38:03.016Z,47.27
2019-02-18T12:40:33.925Z,47.95
2019-02-18T12:43:06.074Z,48.32
2019-02-18T12:45:36.948Z,48.63
2019-02-18T12:48:07.955Z,48.03
2019-02-18T12:50:39.415Z,46.76
2019-02-18T12:53:10.645Z,47.54
2019-02-18T12:55:46.074Z,47.58
2019-02-18T12:58:18.431Z,47.86
2019-02-18T13:00:49.684Z,48.38
2019-02-18T13:03:23.957Z,47.49
2019-02-18T13:05:54.949Z,47.73
2019-02-18T13:08:26.246Z,47.71
2019-02-18T13:10:57.435Z,47.05
2019-02-18T13:13:31.300Z,46.05
2019-02-18T13:16:01.622Z,45.93
2019-02-18T13:18:33.245Z,46.12
2019-02-18T13:21:10.445Z,46.23
2019-02-18T13:23:50.175Z,46.90
2019-02-18T13:26:21.216Z,46.93
2019-02-18T13:28:52.193Z,47.16
2019-02-18T13:31:23.316Z,46.94
2019-02-18T13:33:57.142Z,46.70
2019-02-18T13:36:28.371Z,46.87
2019-02-18T13:39:31.916Z,46.09
2019-02-18T13:42:07.361Z,45.96
2019-02-18T13:44:40.964Z,44.83
2019-02-18T13:47:31.344Z,44.88
2019-02-18T13:50:05.448Z,45.03
2019-02-18T13:53:28.185Z,45.39
2019-02-18T13:56:12.103Z,45.13
2019-02-18T14:02:32.509Z,41.34
2019-02-18T14:12:39.255Z,44.45
2019-02-18T14:15:17.637Z,45.18
2019-02-18T14:17:50.674Z,46.14
2019-02-18T14:20:22.065Z,46.83
2019-02-18T14:22:54.229Z,47.04
2019-02-18T14:25:25.564Z,48.03
2019-02-18T14:27:56.948Z,47.62
2019-02-18T14:30:30.474Z,47.30
2019-02-18T14:33:01.724Z,47.72
2019-02-18T14:35:33.333Z,48.06
2019-02-18T14:39:14.468Z,49.12
2019-02-18T14:41:47.455Z,50.32
2019-02-18T14:44:18.445Z,51.13
2019-02-18T14:46:49.894Z,50.92
2019-02-18T14:49:21.475Z,50.81
2019-02-18T14:51:53.477Z,50.91
2019-02-18T14:54:25.154Z,51.38
2019-02-18T14:57:00.374Z,52.40
2019-02-18T14:59:34.197Z,54.18
2019-02-18T15:02:04.507Z,55.76
2019-02-18T15:04:35.644Z,56.86
2019-02-18T15:07:07.353Z,57.51
2019-02-18T15:09:38.615Z,58.13
2019-02-18T15:12:09.745Z,58.69
2019-02-18T15:14:43.874Z,59.23
2019-02-18T15:17:16.473Z,59.82
2019-02-18T15:19:47.557Z,60.20
2019-02-18T15:22:18.675Z,60.54
2019-02-18T15:24:49.512Z,60.86
2019-02-18T15:27:20.635Z,61.15
2019-02-18T15:29:52.686Z,61.54
2019-02-18T15:32:23.794Z,61.74
2019-02-18T15:34:54.883Z,62.06
2019-02-18T15:37:25.768Z,62.37
2019-02-18T15:39:57.074Z,62.67
2019-02-18T15:42:28.109Z,62.93
2019-02-18T15:44:59.246Z,63.58
2019-02-18T15:47:31.405Z,63.95
2019-02-18T15:50:02.375Z,64.41
2019-02-18T15:52:33.870Z,64.63
2019-02-18T15:55:04.952Z,65.02
2019-02-18T15:57:35.929Z,65.45
2019-02-18T16:00:11.955Z,65.80
2019-02-18T16:02:42.948Z,66.03
2019-02-18T16:05:13.842Z,66.24
2019-02-18T16:07:44.994Z,66.70
2019-02-18T16:10:16.005Z,66.79
2019-02-18T16:12:51.105Z,67.07
2019-02-18T16:15:22.395Z,67.40
2019-02-18T16:17:53.324Z,67.66
2019-02-18T16:20:24.294Z,67.89
2019-02-18T16:22:55.465Z,67.93
2019-02-18T16:25:26.423Z,68.18
2019-02-18T16:27:57.435Z,68.02
2019-02-18T16:30:28.865Z,68.04
2019-02-18T16:32:59.834Z,68.46
2019-02-18T16:35:31.274Z,68.75
2019-02-18T16:38:02.365Z,69.43
2019-02-18T16:40:33.785Z,69.70
2019-02-18T16:43:04.644Z,69.62
2019-02-18T16:45:36.165Z,69.89
2019-02-18T16:48:07.785Z,69.56
2019-02-18T16:50:38.924Z,69.86
2019-02-18T16:53:10.127Z,69.50
2019-02-18T16:55:41.382Z,69.60
2019-02-18T16:58:12.214Z,69.70
2019-02-18T17:00:43.288Z,69.77
2019-02-18T17:03:14.334Z,69.95
2019-02-18T17:05:45.385Z,70.32
2019-02-18T17:08:16.605Z,70.69
2019-02-18T17:10:47.774Z,71.25
2019-02-18T17:13:18.784Z,71.33
2019-02-18T17:15:50.354Z,71.82
2019-02-18T17:18:21.494Z,72.18
2019-02-18T17:20:52.835Z,72.10
2019-02-18T17:23:24.034Z,72.35
2019-02-18T17:25:54.805Z,72.66
2019-02-18T17:28:25.764Z,72.32
2019-02-18T17:30:56.869Z,72.48
2019-02-18T17:33:27.929Z,72.78
2019-02-18T17:35:59.824Z,72.75
2019-02-18T17:38:30.695Z,72.55
2019-02-18T17:41:01.795Z,72.88
2019-02-18T17:43:33.014Z,72.71
2019-02-18T17:46:04.145Z,72.96
2019-02-18T17:48:35.214Z,72.84
2019-02-18T17:51:15.483Z,72.93
2019-02-18T17:57:54.624Z,73.15
2019-02-18T18:00:48.643Z,72.82
2019-02-18T18:03:47.285Z,73.28
2019-02-18T18:06:22.085Z,73.01
2019-02-18T18:08:54.654Z,73.32
2019-02-18T18:11:25.904Z,73.24
2019-02-18T18:13:57.684Z,73.64
2019-02-18T18:16:28.492Z,73.85
2019-02-18T18:19:09.145Z,73.70
2019-02-18T18:21:35.284Z,73.99
2019-02-18T18:24:27.095Z,74.24
2019-02-18T18:26:54.845Z,73.95
2019-02-18T18:29:25.877Z,74.07
2019-02-18T18:31:59.414Z,73.92
2019-02-18T18:34:56.328Z,74.62
2019-02-18T18:37:36.233Z,74.54
2019-02-18T18:40:19.264Z,74.93
2019-02-18T18:42:53.103Z,75.05
2019-02-18T18:45:25.745Z,74.96
2019-02-18T18:48:05.305Z,74.48
2019-02-18T18:50:40.412Z,75.13
2019-02-18T18:53:11.207Z,75.36
2019-02-18T18:55:46.813Z,75.22
2019-02-18T18:58:25.055Z,75.03
2019-02-18T19:00:55.886Z,75.34
2019-02-18T19:03:35.297Z,75.54
2019-02-18T19:06:11.534Z,74.90
2019-02-18T19:08:43.265Z,74.90
2019-02-18T19:11:39.213Z,75.21
2019-02-18T19:14:13.135Z,75.03
2019-02-18T19:16:45.495Z,74.87
2019-02-18T19:19:20.545Z,75.90
2019-02-18T19:21:57.384Z,75.53
2019-02-18T19:24:32.964Z,75.57
2019-02-18T19:27:23.477Z,76.06
2019-02-18T19:29:55.663Z,76.12
2019-02-18T19:32:28.228Z,76.09
2019-02-18T19:34:59.934Z,75.68
2019-02-18T19:37:30.895Z,75.84
2019-02-18T19:40:01.765Z,75.81
2019-02-18T19:42:32.704Z,76.41
2019-02-18T19:45:04.369Z,76.41
2019-02-18T19:47:35.323Z,76.49
2019-02-18T19:50:06.384Z,76.36
2019-02-18T19:53:22.045Z,75.73
2019-02-18T19:55:57.131Z,75.60
2019-02-18T19:58:28.175Z,76.21
2019-02-18T20:01:02.244Z,76.37
2019-02-18T20:03:33.264Z,76.38
2019-02-18T20:06:04.893Z,76.49
2019-02-18T20:08:54.123Z,76.78
2019-02-18T20:11:42.233Z,76.79
2019-02-18T20:14:28.113Z,77.25
2019-02-18T20:16:59.040Z,77.29
2019-02-18T20:19:30.514Z,77.61
2019-02-18T20:22:01.825Z,77.34
2019-02-18T20:24:35.055Z,77.60
2019-02-18T20:27:07.645Z,77.53
2019-02-18T20:30:27.135Z,77.71
2019-02-18T20:33:02.813Z,77.83
2019-02-18T20:35:34.168Z,77.88
2019-02-18T20:38:05.923Z,77.70
2019-02-18T20:40:37.029Z,77.83
2019-02-18T20:43:08.094Z,77.63
2019-02-18T20:45:38.984Z,77.42
2019-02-18T20:48:09.961Z,77.39
2019-02-18T20:50:43.545Z,77.48
2019-02-18T20:53:14.774Z,77.37
2019-02-18T20:55:45.825Z,77.36
2019-02-18T20:58:16.713Z,77.55
2019-02-18T21:00:47.784Z,77.81
2019-02-18T21:03:19.133Z,77.34
2019-02-18T21:05:50.294Z,77.53
2019-02-18T21:08:21.684Z,77.43
2019-02-18T21:10:52.554Z,77.57
2019-02-18T21:13:23.518Z,78.05
2019-02-18T21:15:54.513Z,77.88
2019-02-18T21:18:25.904Z,77.78
2019-02-18T21:20:56.875Z,77.49
2019-02-18T21:23:28.864Z,77.53
2019-02-18T21:25:59.877Z,77.25
2019-02-18T21:29:17.377Z,77.25
2019-02-18T21:31:55.428Z,77.15
2019-02-18T21:34:26.504Z,77.36
2019-02-18T21:37:00.024Z,77.25
2019-02-18T21:39:33.762Z,77.00
2019-02-18T21:42:04.866Z,76.90
2019-02-18T21:44:37.356Z,76.93
2019-02-18T21:47:07.702Z,76.89
2019-02-18T21:49:42.573Z,76.58
2019-02-18T21:52:19.799Z,76.42
2019-02-18T21:54:56.861Z,76.42
2019-02-18T21:57:28.605Z,76.89
2019-02-18T22:00:02.088Z,76.79
2019-02-18T22:02:34.174Z,76.79
2019-02-18T22:05:05.314Z,77.00
2019-02-18T22:07:36.594Z,76.74
2019-02-18T22:10:11.084Z,77.32
2019-02-18T22:12:52.703Z,77.48
2019-02-18T22:15:25.094Z,77.24
2019-02-18T22:17:56.326Z,77.31
2019-02-18T22:20:27.385Z,77.42
2019-02-18T22:22:58.373Z,77.48
2019-02-18T22:25:29.375Z,77.46
2019-02-18T22:28:00.523Z,77.31
2019-02-18T22:30:31.705Z,77.60
2019-02-18T22:33:02.904Z,77.59
2019-02-18T22:35:34.073Z,77.80
2019-02-18T22:38:05.215Z,77.56
2019-02-18T22:40:36.074Z,77.40
2019-02-18T22:43:07.054Z,77.71
2019-02-18T22:45:39.654Z,78.07
2019-02-18T22:48:10.416Z,78.68
2019-02-18T22:50:41.414Z,78.10
2019-02-18T22:53:12.391Z,77.99
2019-02-18T22:55:43.179Z,78.27
2019-02-18T22:58:14.004Z,78.46
2019-02-18T23:00:59.396Z,78.24
2019-02-18T23:03:30.364Z,78.31
2019-02-18T23:06:02.915Z,78.61
2019-02-18T23:08:38.214Z,78.76
2019-02-18T23:11:10.745Z,78.38
2019-02-18T23:13:41.545Z,78.97
2019-02-18T23:16:12.456Z,79.11
2019-02-18T23:18:43.345Z,79.24
2019-02-18T23:21:14.112Z,78.90
2019-02-18T23:23:45.294Z,78.99
2019-02-18T23:26:16.255Z,78.91
2019-02-18T23:28:47.225Z,79.04
2019-02-18T23:31:18.055Z,78.46
2019-02-18T23:33:49.033Z,78.71
2019-02-18T23:36:20.897Z,78.20
2019-02-18T23:38:51.975Z,78.14
2019-02-18T23:41:22.853Z,78.30
2019-02-18T23:43:54.015Z,78.44
2019-02-18T23:46:25.055Z,78.40
2019-02-18T23:48:56.105Z,78.47
2019-02-18T23:51:26.994Z,78.63
2019-02-18T23:53:58.108Z,78.66
2019-02-18T23:56:28.984Z,78.38
2019-02-18T23:59:00.145Z,78.54
